sensor_id;sensor_type;location;lat;lon;timestamp;P1;durP1;ratioP1;P2;durP2;ratioP2
68923;SDS011;55961;52.156;20.942;2022-10-17T00:01:34;26.27;;;15.47;;
68923;SDS011;55961;52.156;20.942;2022-10-17T00:03:59;24.02;;;15.98;;
68923;SDS011;55961;52.156;20.942;2022-10-17T00:06:25;24.80;;;14.05;;
68923;SDS011;55961;52.156;20.942;2022-10-17T00:08:51;25.60;;;14.70;;
68923;SDS011;55961;52.156;20.942;2022-10-17T00:11:19;23.23;;;14.00;;
68923;SDS011;55961;52.156;20.942;2022-10-17T00:13:46;23.48;;;14.07;;
68923;SDS011;55961;52.156;20.942;2022-10-17T00:16:18;23.38;;;14.15;;
68923;SDS011;55961;52.156;20.942;2022-10-17T00:18:55;24.03;;;13.23;;
68923;SDS011;55961;52.156;20.942;2022-10-17T00:21:21;22.02;;;13.60;;
68923;SDS011;55961;52.156;20.942;2022-10-17T00:23:48;25.92;;;15.32;;
68923;SDS011;55961;52.156;20.942;2022-10-17T00:26:33;23.95;;;14.27;;
68923;SDS011;55961;52.156;20.942;2022-10-17T00:28:59;25.92;;;14.50;;
68923;SDS011;55961;52.156;20.942;2022-10-17T00:31:25;22.47;;;13.00;;
68923;SDS011;55961;52.156;20.942;2022-10-17T00:33:51;26.00;;;14.80;;
68923;SDS011;55961;52.156;20.942;2022-10-17T00:36:19;25.45;;;14.20;;
68923;SDS011;55961;52.156;20.942;2022-10-17T00:38:51;25.58;;;14.70;;
68923;SDS011;55961;52.156;20.942;2022-10-17T00:41:19;23.63;;;13.60;;
68923;SDS011;55961;52.156;20.942;2022-10-17T00:44:01;23.77;;;14.68;;
68923;SDS011;55961;52.156;20.942;2022-10-17T00:46:36;24.63;;;14.32;;
68923;SDS011;55961;52.156;20.942;2022-10-17T00:49:07;21.95;;;13.85;;
68923;SDS011;55961;52.156;20.942;2022-10-17T00:51:52;22.38;;;13.82;;
68923;SDS011;55961;52.156;20.942;2022-10-17T00:54:22;23.53;;;13.80;;
68923;SDS011;55961;52.156;20.942;2022-10-17T00:56:53;23.58;;;14.95;;
68923;SDS011;55961;52.156;20.942;2022-10-17T00:59:19;27.40;;;14.27;;
68923;SDS011;55961;52.156;20.942;2022-10-17T01:01:48;23.52;;;13.38;;
68923;SDS011;55961;52.156;20.942;2022-10-17T01:04:24;24.75;;;14.48;;
68923;SDS011;55961;52.156;20.942;2022-10-17T01:06:49;25.03;;;14.00;;
68923;SDS011;55961;52.156;20.942;2022-10-17T01:09:15;23.38;;;13.60;;
68923;SDS011;55961;52.156;20.942;2022-10-17T01:17:35;22.83;;;13.90;;
68923;SDS011;55961;52.156;20.942;2022-10-17T01:29:12;25.67;;;15.37;;
68923;SDS011;55961;52.156;20.942;2022-10-17T01:42:30;27.30;;;16.10;;
68923;SDS011;55961;52.156;20.942;2022-10-17T01:47:50;31.15;;;14.57;;
68923;SDS011;55961;52.156;20.942;2022-10-17T01:50:19;27.63;;;15.82;;
68923;SDS011;55961;52.156;20.942;2022-10-17T01:52:52;26.65;;;15.10;;
68923;SDS011;55961;52.156;20.942;2022-10-17T01:55:24;26.50;;;16.37;;
68923;SDS011;55961;52.156;20.942;2022-10-17T01:57:59;26.52;;;15.90;;
68923;SDS011;55961;52.156;20.942;2022-10-17T02:00:34;25.85;;;14.77;;
68923;SDS011;55961;52.156;20.942;2022-10-17T02:03:05;23.73;;;14.90;;
68923;SDS011;55961;52.156;20.942;2022-10-17T02:05:38;26.65;;;15.50;;
68923;SDS011;55961;52.156;20.942;2022-10-17T02:08:05;25.77;;;15.17;;
68923;SDS011;55961;52.156;20.942;2022-10-17T02:15:58;26.98;;;14.25;;
68923;SDS011;55961;52.156;20.942;2022-10-17T02:21:43;31.17;;;14.83;;
68923;SDS011;55961;52.156;20.942;2022-10-17T02:24:36;24.38;;;14.50;;
68923;SDS011;55961;52.156;20.942;2022-10-17T02:29:48;25.58;;;15.13;;
68923;SDS011;55961;52.156;20.942;2022-10-17T02:32:20;24.83;;;14.57;;
68923;SDS011;55961;52.156;20.942;2022-10-17T02:34:54;25.97;;;15.13;;
68923;SDS011;55961;52.156;20.942;2022-10-17T02:37:25;25.13;;;14.70;;
68923;SDS011;55961;52.156;20.942;2022-10-17T02:39:53;23.70;;;14.27;;
68923;SDS011;55961;52.156;20.942;2022-10-17T02:42:22;23.23;;;14.55;;
68923;SDS011;55961;52.156;20.942;2022-10-17T02:44:49;28.75;;;15.52;;
68923;SDS011;55961;52.156;20.942;2022-10-17T02:49:52;24.80;;;15.55;;
68923;SDS011;55961;52.156;20.942;2022-10-17T02:52:33;28.08;;;15.52;;
68923;SDS011;55961;52.156;20.942;2022-10-17T02:55:29;25.90;;;14.63;;
68923;SDS011;55961;52.156;20.942;2022-10-17T02:58:07;23.25;;;14.43;;
68923;SDS011;55961;52.156;20.942;2022-10-17T03:00:38;26.80;;;16.30;;
68923;SDS011;55961;52.156;20.942;2022-10-17T03:03:17;26.73;;;14.43;;
68923;SDS011;55961;52.156;20.942;2022-10-17T03:05:48;27.23;;;14.77;;
68923;SDS011;55961;52.156;20.942;2022-10-17T03:08:14;35.08;;;17.13;;
68923;SDS011;55961;52.156;20.942;2022-10-17T03:10:40;28.27;;;13.93;;
68923;SDS011;55961;52.156;20.942;2022-10-17T03:13:06;25.55;;;14.93;;
68923;SDS011;55961;52.156;20.942;2022-10-17T03:15:32;24.88;;;14.77;;
68923;SDS011;55961;52.156;20.942;2022-10-17T03:17:58;27.40;;;15.23;;
68923;SDS011;55961;52.156;20.942;2022-10-17T03:20:23;25.42;;;15.07;;
68923;SDS011;55961;52.156;20.942;2022-10-17T03:22:49;28.83;;;16.17;;
68923;SDS011;55961;52.156;20.942;2022-10-17T03:25:15;29.25;;;16.35;;
68923;SDS011;55961;52.156;20.942;2022-10-17T03:27:41;28.42;;;16.90;;
68923;SDS011;55961;52.156;20.942;2022-10-17T03:30:07;30.80;;;17.00;;
68923;SDS011;55961;52.156;20.942;2022-10-17T03:32:33;31.30;;;16.65;;
68923;SDS011;55961;52.156;20.942;2022-10-17T03:35:00;26.85;;;15.80;;
68923;SDS011;55961;52.156;20.942;2022-10-17T03:37:25;28.02;;;16.95;;
68923;SDS011;55961;52.156;20.942;2022-10-17T03:39:52;34.77;;;19.97;;
68923;SDS011;55961;52.156;20.942;2022-10-17T03:42:17;31.35;;;17.15;;
68923;SDS011;55961;52.156;20.942;2022-10-17T03:44:43;30.00;;;17.17;;
68923;SDS011;55961;52.156;20.942;2022-10-17T03:47:09;49.27;;;24.07;;
68923;SDS011;55961;52.156;20.942;2022-10-17T03:49:35;37.65;;;20.67;;
68923;SDS011;55961;52.156;20.942;2022-10-17T03:52:01;45.47;;;24.43;;
68923;SDS011;55961;52.156;20.942;2022-10-17T03:54:27;37.53;;;20.95;;
68923;SDS011;55961;52.156;20.942;2022-10-17T03:56:53;32.10;;;18.70;;
68923;SDS011;55961;52.156;20.942;2022-10-17T03:59:19;32.75;;;17.42;;
68923;SDS011;55961;52.156;20.942;2022-10-17T04:01:44;31.17;;;18.10;;
68923;SDS011;55961;52.156;20.942;2022-10-17T04:04:10;27.42;;;17.92;;
68923;SDS011;55961;52.156;20.942;2022-10-17T04:06:36;30.07;;;17.70;;
68923;SDS011;55961;52.156;20.942;2022-10-17T04:09:03;30.48;;;17.92;;
68923;SDS011;55961;52.156;20.942;2022-10-17T04:11:30;31.73;;;19.35;;
68923;SDS011;55961;52.156;20.942;2022-10-17T04:13:56;30.83;;;17.15;;
68923;SDS011;55961;52.156;20.942;2022-10-17T04:16:23;34.88;;;17.98;;
68923;SDS011;55961;52.156;20.942;2022-10-17T04:18:51;29.80;;;17.90;;
68923;SDS011;55961;52.156;20.942;2022-10-17T04:21:19;29.55;;;17.52;;
68923;SDS011;55961;52.156;20.942;2022-10-17T04:23:46;27.55;;;16.92;;
68923;SDS011;55961;52.156;20.942;2022-10-17T04:26:12;24.88;;;15.77;;
68923;SDS011;55961;52.156;20.942;2022-10-17T04:28:38;29.93;;;15.57;;
68923;SDS011;55961;52.156;20.942;2022-10-17T04:31:04;63.63;;;48.70;;
68923;SDS011;55961;52.156;20.942;2022-10-17T04:33:32;34.47;;;22.38;;
68923;SDS011;55961;52.156;20.942;2022-10-17T04:36:02;33.60;;;20.50;;
68923;SDS011;55961;52.156;20.942;2022-10-17T04:38:31;38.20;;;19.97;;
68923;SDS011;55961;52.156;20.942;2022-10-17T04:40:58;38.30;;;21.02;;
68923;SDS011;55961;52.156;20.942;2022-10-17T04:43:30;37.25;;;20.88;;
68923;SDS011;55961;52.156;20.942;2022-10-17T04:46:01;40.05;;;21.08;;
68923;SDS011;55961;52.156;20.942;2022-10-17T04:48:29;45.00;;;22.25;;
68923;SDS011;55961;52.156;20.942;2022-10-17T04:50:59;43.90;;;21.83;;
68923;SDS011;55961;52.156;20.942;2022-10-17T04:53:29;42.78;;;21.70;;
68923;SDS011;55961;52.156;20.942;2022-10-17T04:55:57;40.92;;;21.48;;
68923;SDS011;55961;52.156;20.942;2022-10-17T04:58:23;39.03;;;21.05;;
68923;SDS011;55961;52.156;20.942;2022-10-17T05:00:49;40.33;;;21.00;;
68923;SDS011;55961;52.156;20.942;2022-10-17T05:03:15;43.43;;;21.80;;
68923;SDS011;55961;52.156;20.942;2022-10-17T05:05:41;39.03;;;20.27;;
68923;SDS011;55961;52.156;20.942;2022-10-17T05:08:08;35.65;;;20.50;;
68923;SDS011;55961;52.156;20.942;2022-10-17T05:10:38;36.08;;;20.50;;
68923;SDS011;55961;52.156;20.942;2022-10-17T05:13:06;34.03;;;18.77;;
68923;SDS011;55961;52.156;20.942;2022-10-17T05:15:33;36.43;;;20.93;;
68923;SDS011;55961;52.156;20.942;2022-10-17T05:17:59;35.83;;;18.83;;
68923;SDS011;55961;52.156;20.942;2022-10-17T05:20:25;36.83;;;19.52;;
68923;SDS011;55961;52.156;20.942;2022-10-17T05:22:52;34.40;;;20.20;;
68923;SDS011;55961;52.156;20.942;2022-10-17T05:25:18;33.25;;;19.83;;
68923;SDS011;55961;52.156;20.942;2022-10-17T05:27:44;33.70;;;19.53;;
68923;SDS011;55961;52.156;20.942;2022-10-17T05:30:10;33.92;;;20.30;;
68923;SDS011;55961;52.156;20.942;2022-10-17T05:32:36;37.22;;;21.38;;
68923;SDS011;55961;52.156;20.942;2022-10-17T05:35:03;36.22;;;20.00;;
68923;SDS011;55961;52.156;20.942;2022-10-17T05:37:30;39.17;;;21.53;;
68923;SDS011;55961;52.156;20.942;2022-10-17T05:39:56;45.65;;;23.67;;
68923;SDS011;55961;52.156;20.942;2022-10-17T05:42:22;36.72;;;20.25;;
68923;SDS011;55961;52.156;20.942;2022-10-17T05:44:48;36.40;;;20.65;;
68923;SDS011;55961;52.156;20.942;2022-10-17T05:47:14;33.20;;;20.40;;
68923;SDS011;55961;52.156;20.942;2022-10-17T05:49:40;37.13;;;20.92;;
68923;SDS011;55961;52.156;20.942;2022-10-17T05:52:06;40.78;;;22.27;;
68923;SDS011;55961;52.156;20.942;2022-10-17T05:54:32;40.95;;;22.35;;
68923;SDS011;55961;52.156;20.942;2022-10-17T05:56:58;40.57;;;21.37;;
68923;SDS011;55961;52.156;20.942;2022-10-17T05:59:24;38.95;;;20.38;;
68923;SDS011;55961;52.156;20.942;2022-10-17T06:01:51;41.83;;;21.45;;
68923;SDS011;55961;52.156;20.942;2022-10-17T06:04:19;37.78;;;22.58;;
68923;SDS011;55961;52.156;20.942;2022-10-17T06:06:45;39.20;;;22.37;;
68923;SDS011;55961;52.156;20.942;2022-10-17T06:09:11;38.85;;;21.38;;
68923;SDS011;55961;52.156;20.942;2022-10-17T06:11:37;41.08;;;23.17;;
68923;SDS011;55961;52.156;20.942;2022-10-17T06:14:03;37.47;;;22.27;;
68923;SDS011;55961;52.156;20.942;2022-10-17T06:16:29;47.28;;;24.65;;
68923;SDS011;55961;52.156;20.942;2022-10-17T06:18:55;42.17;;;24.83;;
68923;SDS011;55961;52.156;20.942;2022-10-17T06:21:22;45.45;;;26.77;;
68923;SDS011;55961;52.156;20.942;2022-10-17T06:23:50;43.30;;;25.67;;
68923;SDS011;55961;52.156;20.942;2022-10-17T06:26:16;40.17;;;23.97;;
68923;SDS011;55961;52.156;20.942;2022-10-17T06:28:43;43.63;;;22.75;;
68923;SDS011;55961;52.156;20.942;2022-10-17T06:31:13;40.50;;;24.52;;
68923;SDS011;55961;52.156;20.942;2022-10-17T06:33:40;39.13;;;24.13;;
68923;SDS011;55961;52.156;20.942;2022-10-17T06:36:06;43.17;;;24.48;;
68923;SDS011;55961;52.156;20.942;2022-10-17T06:38:35;41.43;;;24.27;;
68923;SDS011;55961;52.156;20.942;2022-10-17T06:41:02;40.50;;;24.33;;
68923;SDS011;55961;52.156;20.942;2022-10-17T06:43:32;40.78;;;24.73;;
68923;SDS011;55961;52.156;20.942;2022-10-17T06:45:59;38.92;;;23.15;;
68923;SDS011;55961;52.156;20.942;2022-10-17T06:48:25;36.67;;;22.50;;
68923;SDS011;55961;52.156;20.942;2022-10-17T06:50:51;39.05;;;22.40;;
68923;SDS011;55961;52.156;20.942;2022-10-17T06:53:16;42.83;;;22.77;;
68923;SDS011;55961;52.156;20.942;2022-10-17T06:55:42;42.83;;;22.63;;
68923;SDS011;55961;52.156;20.942;2022-10-17T06:58:08;40.58;;;22.50;;
68923;SDS011;55961;52.156;20.942;2022-10-17T07:00:34;39.50;;;21.77;;
68923;SDS011;55961;52.156;20.942;2022-10-17T07:03:00;45.37;;;22.23;;
68923;SDS011;55961;52.156;20.942;2022-10-17T07:05:26;38.53;;;22.70;;
68923;SDS011;55961;52.156;20.942;2022-10-17T07:07:51;37.30;;;21.97;;
68923;SDS011;55961;52.156;20.942;2022-10-17T07:10:17;37.47;;;21.95;;
68923;SDS011;55961;52.156;20.942;2022-10-17T07:12:43;39.08;;;22.20;;
68923;SDS011;55961;52.156;20.942;2022-10-17T07:15:10;34.92;;;21.50;;
68923;SDS011;55961;52.156;20.942;2022-10-17T07:17:35;34.93;;;22.03;;
68923;SDS011;55961;52.156;20.942;2022-10-17T07:20:01;36.58;;;20.98;;
68923;SDS011;55961;52.156;20.942;2022-10-17T07:22:27;33.08;;;19.08;;
68923;SDS011;55961;52.156;20.942;2022-10-17T07:24:53;34.57;;;20.27;;
68923;SDS011;55961;52.156;20.942;2022-10-17T07:27:19;30.95;;;18.98;;
68923;SDS011;55961;52.156;20.942;2022-10-17T07:29:45;31.77;;;19.73;;
68923;SDS011;55961;52.156;20.942;2022-10-17T07:32:10;32.20;;;18.90;;
68923;SDS011;55961;52.156;20.942;2022-10-17T07:34:36;32.92;;;19.73;;
68923;SDS011;55961;52.156;20.942;2022-10-17T07:37:02;29.90;;;18.60;;
68923;SDS011;55961;52.156;20.942;2022-10-17T07:39:28;34.60;;;19.08;;
68923;SDS011;55961;52.156;20.942;2022-10-17T07:41:54;30.27;;;19.70;;
68923;SDS011;55961;52.156;20.942;2022-10-17T07:44:20;30.88;;;18.35;;
68923;SDS011;55961;52.156;20.942;2022-10-17T07:46:45;29.00;;;19.07;;
68923;SDS011;55961;52.156;20.942;2022-10-17T07:49:11;28.02;;;18.35;;
68923;SDS011;55961;52.156;20.942;2022-10-17T07:51:37;35.03;;;19.27;;
68923;SDS011;55961;52.156;20.942;2022-10-17T07:54:04;30.95;;;18.27;;
68923;SDS011;55961;52.156;20.942;2022-10-17T07:56:30;33.53;;;18.85;;
68923;SDS011;55961;52.156;20.942;2022-10-17T07:58:56;28.52;;;18.10;;
68923;SDS011;55961;52.156;20.942;2022-10-17T08:01:22;29.30;;;17.10;;
68923;SDS011;55961;52.156;20.942;2022-10-17T08:03:50;30.97;;;17.63;;
68923;SDS011;55961;52.156;20.942;2022-10-17T08:06:15;29.73;;;17.85;;
68923;SDS011;55961;52.156;20.942;2022-10-17T08:08:42;30.27;;;17.42;;
68923;SDS011;55961;52.156;20.942;2022-10-17T08:11:09;26.10;;;16.38;;
68923;SDS011;55961;52.156;20.942;2022-10-17T08:13:37;27.63;;;16.57;;
68923;SDS011;55961;52.156;20.942;2022-10-17T08:16:05;29.20;;;17.80;;
68923;SDS011;55961;52.156;20.942;2022-10-17T08:18:34;28.70;;;16.90;;
68923;SDS011;55961;52.156;20.942;2022-10-17T08:21:03;27.42;;;17.30;;
68923;SDS011;55961;52.156;20.942;2022-10-17T08:23:30;27.63;;;17.02;;
68923;SDS011;55961;52.156;20.942;2022-10-17T08:26:00;28.57;;;16.53;;
68923;SDS011;55961;52.156;20.942;2022-10-17T08:28:27;26.77;;;16.33;;
68923;SDS011;55961;52.156;20.942;2022-10-17T08:31:00;27.52;;;16.60;;
68923;SDS011;55961;52.156;20.942;2022-10-17T08:33:37;28.15;;;15.18;;
68923;SDS011;55961;52.156;20.942;2022-10-17T08:36:04;27.43;;;16.47;;
68923;SDS011;55961;52.156;20.942;2022-10-17T08:38:31;26.92;;;16.20;;
68923;SDS011;55961;52.156;20.942;2022-10-17T08:41:02;25.13;;;15.43;;
68923;SDS011;55961;52.156;20.942;2022-10-17T08:46:41;28.48;;;16.85;;
68923;SDS011;55961;52.156;20.942;2022-10-17T08:49:19;23.50;;;14.27;;
68923;SDS011;55961;52.156;20.942;2022-10-17T08:52:06;25.02;;;15.15;;
68923;SDS011;55961;52.156;20.942;2022-10-17T08:54:47;19.55;;;14.68;;
68923;SDS011;55961;52.156;20.942;2022-10-17T08:57:15;23.38;;;14.45;;
68923;SDS011;55961;52.156;20.942;2022-10-17T08:59:42;23.35;;;14.57;;
68923;SDS011;55961;52.156;20.942;2022-10-17T09:02:32;25.37;;;14.13;;
68923;SDS011;55961;52.156;20.942;2022-10-17T09:13:30;21.90;;;14.20;;
68923;SDS011;55961;52.156;20.942;2022-10-17T09:19:25;19.73;;;13.27;;
68923;SDS011;55961;52.156;20.942;2022-10-17T09:24:39;21.63;;;13.85;;
68923;SDS011;55961;52.156;20.942;2022-10-17T09:27:14;21.17;;;14.20;;
68923;SDS011;55961;52.156;20.942;2022-10-17T09:29:51;19.40;;;14.10;;
68923;SDS011;55961;52.156;20.942;2022-10-17T09:32:25;18.92;;;13.73;;
68923;SDS011;55961;52.156;20.942;2022-10-17T09:34:51;22.42;;;14.23;;
68923;SDS011;55961;52.156;20.942;2022-10-17T09:37:18;19.17;;;12.98;;
68923;SDS011;55961;52.156;20.942;2022-10-17T09:39:46;18.33;;;13.67;;
68923;SDS011;55961;52.156;20.942;2022-10-17T09:42:13;20.80;;;13.55;;
68923;SDS011;55961;52.156;20.942;2022-10-17T09:49:50;21.00;;;13.63;;
68923;SDS011;55961;52.156;20.942;2022-10-17T09:52:17;20.52;;;13.50;;
68923;SDS011;55961;52.156;20.942;2022-10-17T09:57:27;21.02;;;12.75;;
68923;SDS011;55961;52.156;20.942;2022-10-17T09:59:59;18.03;;;12.73;;
68923;SDS011;55961;52.156;20.942;2022-10-17T10:02:28;19.15;;;12.93;;
68923;SDS011;55961;52.156;20.942;2022-10-17T10:05:00;17.60;;;11.82;;
68923;SDS011;55961;52.156;20.942;2022-10-17T10:07:29;19.02;;;13.30;;
68923;SDS011;55961;52.156;20.942;2022-10-17T10:10:00;21.52;;;13.32;;
68923;SDS011;55961;52.156;20.942;2022-10-17T10:12:36;19.67;;;13.23;;
68923;SDS011;55961;52.156;20.942;2022-10-17T10:15:48;19.77;;;13.10;;
68923;SDS011;55961;52.156;20.942;2022-10-17T10:17:57;20.75;;;13.02;;
68923;SDS011;55961;52.156;20.942;2022-10-17T10:20:33;21.20;;;12.57;;
68923;SDS011;55961;52.156;20.942;2022-10-17T10:25:31;20.15;;;12.20;;
68923;SDS011;55961;52.156;20.942;2022-10-17T10:27:57;21.83;;;12.38;;
68923;SDS011;55961;52.156;20.942;2022-10-17T10:30:29;21.83;;;12.55;;
68923;SDS011;55961;52.156;20.942;2022-10-17T10:32:55;20.13;;;12.13;;
68923;SDS011;55961;52.156;20.942;2022-10-17T10:35:34;19.90;;;12.40;;
68923;SDS011;55961;52.156;20.942;2022-10-17T10:38:02;20.92;;;12.30;;
68923;SDS011;55961;52.156;20.942;2022-10-17T10:46:15;18.07;;;12.13;;
68923;SDS011;55961;52.156;20.942;2022-10-17T10:48:52;20.83;;;13.10;;
68923;SDS011;55961;52.156;20.942;2022-10-17T10:51:31;18.13;;;12.68;;
68923;SDS011;55961;52.156;20.942;2022-10-17T10:56:57;20.48;;;12.90;;
68923;SDS011;55961;52.156;20.942;2022-10-17T11:02:10;18.70;;;13.02;;
68923;SDS011;55961;52.156;20.942;2022-10-17T11:05:03;20.30;;;12.77;;
68923;SDS011;55961;52.156;20.942;2022-10-17T11:07:40;16.95;;;12.30;;
68923;SDS011;55961;52.156;20.942;2022-10-17T11:10:30;22.13;;;14.00;;
68923;SDS011;55961;52.156;20.942;2022-10-17T11:15:47;20.23;;;13.15;;
68923;SDS011;55961;52.156;20.942;2022-10-17T11:18:27;21.27;;;13.52;;
68923;SDS011;55961;52.156;20.942;2022-10-17T11:21:12;22.13;;;12.80;;
68923;SDS011;55961;52.156;20.942;2022-10-17T11:24:09;19.40;;;12.70;;
68923;SDS011;55961;52.156;20.942;2022-10-17T11:26:42;21.47;;;12.80;;
68923;SDS011;55961;52.156;20.942;2022-10-17T11:29:13;22.23;;;12.48;;
68923;SDS011;55961;52.156;20.942;2022-10-17T11:31:44;28.10;;;13.38;;
68923;SDS011;55961;52.156;20.942;2022-10-17T11:34:16;20.15;;;13.10;;
68923;SDS011;55961;52.156;20.942;2022-10-17T11:36:47;25.13;;;12.88;;
68923;SDS011;55961;52.156;20.942;2022-10-17T11:39:21;20.77;;;12.67;;
68923;SDS011;55961;52.156;20.942;2022-10-17T11:42:11;19.35;;;12.27;;
68923;SDS011;55961;52.156;20.942;2022-10-17T11:45:03;20.00;;;13.20;;
68923;SDS011;55961;52.156;20.942;2022-10-17T11:47:43;18.23;;;13.05;;
68923;SDS011;55961;52.156;20.942;2022-10-17T11:50:16;18.02;;;12.85;;
68923;SDS011;55961;52.156;20.942;2022-10-17T11:53:18;21.47;;;13.17;;
68923;SDS011;55961;52.156;20.942;2022-10-17T11:55:40;18.05;;;12.73;;
68923;SDS011;55961;52.156;20.942;2022-10-17T12:00:58;20.88;;;13.18;;
68923;SDS011;55961;52.156;20.942;2022-10-17T12:14:51;18.13;;;12.32;;
68923;SDS011;55961;52.156;20.942;2022-10-17T12:17:33;21.38;;;12.60;;
68923;SDS011;55961;52.156;20.942;2022-10-17T12:22:52;18.95;;;12.98;;
68923;SDS011;55961;52.156;20.942;2022-10-17T12:27:47;18.63;;;12.40;;
68923;SDS011;55961;52.156;20.942;2022-10-17T12:30:16;18.90;;;12.43;;
68923;SDS011;55961;52.156;20.942;2022-10-17T12:35:23;20.63;;;13.88;;
68923;SDS011;55961;52.156;20.942;2022-10-17T12:43:01;19.43;;;12.03;;
68923;SDS011;55961;52.156;20.942;2022-10-17T12:51:00;20.33;;;13.15;;
68923;SDS011;55961;52.156;20.942;2022-10-17T12:53:30;19.45;;;11.80;;
68923;SDS011;55961;52.156;20.942;2022-10-17T12:56:06;20.90;;;12.43;;
68923;SDS011;55961;52.156;20.942;2022-10-17T12:58:33;17.40;;;12.27;;
68923;SDS011;55961;52.156;20.942;2022-10-17T13:01:00;17.88;;;13.05;;
68923;SDS011;55961;52.156;20.942;2022-10-17T13:03:30;17.40;;;12.10;;
68923;SDS011;55961;52.156;20.942;2022-10-17T13:06:00;16.60;;;12.35;;
68923;SDS011;55961;52.156;20.942;2022-10-17T13:08:30;20.00;;;12.07;;
68923;SDS011;55961;52.156;20.942;2022-10-17T13:10:59;17.33;;;11.48;;
68923;SDS011;55961;52.156;20.942;2022-10-17T13:16:08;17.27;;;11.77;;
68923;SDS011;55961;52.156;20.942;2022-10-17T13:19:15;19.30;;;11.85;;
68923;SDS011;55961;52.156;20.942;2022-10-17T13:21:53;18.73;;;11.80;;
68923;SDS011;55961;52.156;20.942;2022-10-17T13:27:04;19.65;;;12.43;;
68923;SDS011;55961;52.156;20.942;2022-10-17T13:29:31;19.80;;;12.15;;
68923;SDS011;55961;52.156;20.942;2022-10-17T13:31:58;18.40;;;12.55;;
68923;SDS011;55961;52.156;20.942;2022-10-17T13:34:25;17.80;;;12.40;;
68923;SDS011;55961;52.156;20.942;2022-10-17T13:36:53;20.42;;;12.85;;
68923;SDS011;55961;52.156;20.942;2022-10-17T13:39:25;18.45;;;12.43;;
68923;SDS011;55961;52.156;20.942;2022-10-17T13:41:54;17.30;;;11.85;;
68923;SDS011;55961;52.156;20.942;2022-10-17T13:44:22;17.45;;;13.88;;
68923;SDS011;55961;52.156;20.942;2022-10-17T13:46:51;20.47;;;13.70;;
68923;SDS011;55961;52.156;20.942;2022-10-17T13:49:33;26.33;;;12.98;;
68923;SDS011;55961;52.156;20.942;2022-10-17T13:52:03;20.88;;;14.18;;
68923;SDS011;55961;52.156;20.942;2022-10-17T13:57:20;23.33;;;13.32;;
68923;SDS011;55961;52.156;20.942;2022-10-17T13:59:50;18.77;;;12.70;;
68923;SDS011;55961;52.156;20.942;2022-10-17T14:02:22;25.38;;;12.55;;
68923;SDS011;55961;52.156;20.942;2022-10-17T14:07:39;19.67;;;11.70;;
68923;SDS011;55961;52.156;20.942;2022-10-17T14:10:20;21.80;;;12.63;;
68923;SDS011;55961;52.156;20.942;2022-10-17T14:12:48;19.20;;;12.10;;
68923;SDS011;55961;52.156;20.942;2022-10-17T14:15:16;21.52;;;11.95;;
68923;SDS011;55961;52.156;20.942;2022-10-17T14:17:43;19.30;;;12.85;;
68923;SDS011;55961;52.156;20.942;2022-10-17T14:20:19;23.13;;;13.57;;
68923;SDS011;55961;52.156;20.942;2022-10-17T14:22:47;21.58;;;12.15;;
68923;SDS011;55961;52.156;20.942;2022-10-17T14:30:46;22.25;;;14.40;;
68923;SDS011;55961;52.156;20.942;2022-10-17T14:33:17;22.95;;;12.38;;
68923;SDS011;55961;52.156;20.942;2022-10-17T14:35:48;20.85;;;11.98;;
68923;SDS011;55961;52.156;20.942;2022-10-17T14:38:18;26.27;;;12.47;;
68923;SDS011;55961;52.156;20.942;2022-10-17T14:40:52;21.38;;;12.18;;
68923;SDS011;55961;52.156;20.942;2022-10-17T14:43:27;25.17;;;12.30;;
68923;SDS011;55961;52.156;20.942;2022-10-17T14:45:57;23.20;;;12.55;;
68923;SDS011;55961;52.156;20.942;2022-10-17T14:48:25;23.83;;;12.13;;
68923;SDS011;55961;52.156;20.942;2022-10-17T14:53:34;21.08;;;12.07;;
68923;SDS011;55961;52.156;20.942;2022-10-17T14:56:02;21.27;;;12.55;;
68923;SDS011;55961;52.156;20.942;2022-10-17T14:58:34;22.13;;;11.85;;
68923;SDS011;55961;52.156;20.942;2022-10-17T15:01:00;20.97;;;12.77;;
68923;SDS011;55961;52.156;20.942;2022-10-17T15:03:27;25.35;;;12.32;;
68923;SDS011;55961;52.156;20.942;2022-10-17T15:05:53;27.52;;;12.63;;
68923;SDS011;55961;52.156;20.942;2022-10-17T15:08:20;23.90;;;12.90;;
68923;SDS011;55961;52.156;20.942;2022-10-17T15:10:48;20.05;;;13.00;;
68923;SDS011;55961;52.156;20.942;2022-10-17T15:13:15;21.15;;;12.13;;
68923;SDS011;55961;52.156;20.942;2022-10-17T15:15:42;21.98;;;12.95;;
68923;SDS011;55961;52.156;20.942;2022-10-17T15:18:09;28.30;;;13.35;;
68923;SDS011;55961;52.156;20.942;2022-10-17T15:20:36;24.60;;;13.03;;
68923;SDS011;55961;52.156;20.942;2022-10-17T15:23:03;23.02;;;13.90;;
68923;SDS011;55961;52.156;20.942;2022-10-17T15:25:29;21.45;;;13.10;;
68923;SDS011;55961;52.156;20.942;2022-10-17T15:27:56;23.08;;;13.10;;
68923;SDS011;55961;52.156;20.942;2022-10-17T15:30:24;21.53;;;13.73;;
68923;SDS011;55961;52.156;20.942;2022-10-17T15:32:54;23.60;;;13.32;;
68923;SDS011;55961;52.156;20.942;2022-10-17T15:35:20;21.88;;;12.48;;
68923;SDS011;55961;52.156;20.942;2022-10-17T15:37:47;21.65;;;13.88;;
68923;SDS011;55961;52.156;20.942;2022-10-17T15:40:16;26.23;;;16.10;;
68923;SDS011;55961;52.156;20.942;2022-10-17T15:42:48;24.30;;;13.43;;
68923;SDS011;55961;52.156;20.942;2022-10-17T15:45:14;26.15;;;14.05;;
68923;SDS011;55961;52.156;20.942;2022-10-17T15:47:43;21.42;;;14.40;;
68923;SDS011;55961;52.156;20.942;2022-10-17T15:50:14;22.23;;;13.95;;
68923;SDS011;55961;52.156;20.942;2022-10-17T15:52:41;24.70;;;14.10;;
68923;SDS011;55961;52.156;20.942;2022-10-17T15:55:07;24.02;;;15.55;;
68923;SDS011;55961;52.156;20.942;2022-10-17T15:57:39;34.58;;;19.45;;
68923;SDS011;55961;52.156;20.942;2022-10-17T16:00:11;33.90;;;20.25;;
68923;SDS011;55961;52.156;20.942;2022-10-17T16:02:43;35.85;;;20.67;;
68923;SDS011;55961;52.156;20.942;2022-10-17T16:05:19;37.33;;;21.93;;
68923;SDS011;55961;52.156;20.942;2022-10-17T16:07:47;34.55;;;19.33;;
68923;SDS011;55961;52.156;20.942;2022-10-17T16:10:14;30.17;;;18.45;;
68923;SDS011;55961;52.156;20.942;2022-10-17T16:12:41;39.22;;;21.08;;
68923;SDS011;55961;52.156;20.942;2022-10-17T16:15:18;41.27;;;22.37;;
68923;SDS011;55961;52.156;20.942;2022-10-17T16:17:52;44.67;;;23.48;;
68923;SDS011;55961;52.156;20.942;2022-10-17T16:20:20;43.28;;;21.88;;
68923;SDS011;55961;52.156;20.942;2022-10-17T16:22:47;49.05;;;24.33;;
68923;SDS011;55961;52.156;20.942;2022-10-17T16:25:23;39.92;;;24.55;;
68923;SDS011;55961;52.156;20.942;2022-10-17T16:27:51;50.77;;;25.53;;
68923;SDS011;55961;52.156;20.942;2022-10-17T16:30:19;44.92;;;26.42;;
68923;SDS011;55961;52.156;20.942;2022-10-17T16:32:46;53.95;;;28.17;;
68923;SDS011;55961;52.156;20.942;2022-10-17T16:35:15;59.83;;;30.25;;
68923;SDS011;55961;52.156;20.942;2022-10-17T16:37:42;64.35;;;32.28;;
68923;SDS011;55961;52.156;20.942;2022-10-17T16:40:08;58.73;;;29.83;;